Springdale, Idaho
Current Conditions -  °F | °C
As of 11:53 PM on Saturday 25 Oct 2014 (Local Time) from KBYI Reporting Station
Overcast Overcast  
Wind Chill: 57°   Ceiling: 10000
Heat Index: 57°   Visibility: 10mi
Dew Point: 34°   Wind: 7mph
Humidity: 42%   Direction: 270°W
Pressure: 29.92"   Gusts: NA
Location:  42.5011°N, 113.814°W
Report Text: KBYI 260553Z AUTO 27006KT 10SM SCT070 OVC100 14/01 A2992 RMK AO2 SLP099 60000 T01390011 10206 20139 51036
Loading
Personal Weather Stations






























Interactive Weather Map
Tropical Storm Tracking
New forecast layout! Learn more

10-Day Weather Forecast

Advertisements
Track Severe Weather on mobile